sensor_id;sensor_type;location;lat;lon;timestamp;P1;durP1;ratioP1;P2;durP2;ratioP2
17398;SDS011;8817;48.170;8.592;2022-12-11T00:02:24;5.00;;;4.67;;
17398;SDS011;8817;48.170;8.592;2022-12-11T00:04:51;4.93;;;4.53;;
17398;SDS011;8817;48.170;8.592;2022-12-11T00:07:18;5.33;;;4.93;;
17398;SDS011;8817;48.170;8.592;2022-12-11T00:09:45;6.43;;;5.80;;
17398;SDS011;8817;48.170;8.592;2022-12-11T00:12:12;5.00;;;4.50;;
17398;SDS011;8817;48.170;8.592;2022-12-11T00:14:38;4.63;;;4.40;;
17398;SDS011;8817;48.170;8.592;2022-12-11T00:17:05;4.77;;;4.43;;
17398;SDS011;8817;48.170;8.592;2022-12-11T00:19:34;4.53;;;4.20;;
17398;SDS011;8817;48.170;8.592;2022-12-11T00:22:01;5.17;;;4.67;;
17398;SDS011;8817;48.170;8.592;2022-12-11T00:24:27;6.00;;;4.70;;
17398;SDS011;8817;48.170;8.592;2022-12-11T00:26:54;4.80;;;4.40;;
17398;SDS011;8817;48.170;8.592;2022-12-11T00:29:21;5.57;;;5.03;;
17398;SDS011;8817;48.170;8.592;2022-12-11T00:31:48;5.57;;;5.17;;
17398;SDS011;8817;48.170;8.592;2022-12-11T00:34:15;4.63;;;4.30;;
17398;SDS011;8817;48.170;8.592;2022-12-11T00:36:43;5.27;;;4.97;;
17398;SDS011;8817;48.170;8.592;2022-12-11T00:39:10;6.00;;;4.87;;
17398;SDS011;8817;48.170;8.592;2022-12-11T00:41:37;8.13;;;6.73;;
17398;SDS011;8817;48.170;8.592;2022-12-11T00:44:04;16.57;;;8.83;;
17398;SDS011;8817;48.170;8.592;2022-12-11T00:46:31;14.00;;;7.67;;
17398;SDS011;8817;48.170;8.592;2022-12-11T00:48:58;10.10;;;5.77;;
17398;SDS011;8817;48.170;8.592;2022-12-11T00:51:25;6.30;;;5.77;;
17398;SDS011;8817;48.170;8.592;2022-12-11T00:53:53;7.33;;;5.60;;
17398;SDS011;8817;48.170;8.592;2022-12-11T00:56:20;7.57;;;5.17;;
17398;SDS011;8817;48.170;8.592;2022-12-11T00:58:48;6.03;;;5.03;;
17398;SDS011;8817;48.170;8.592;2022-12-11T01:01:17;6.87;;;5.47;;
17398;SDS011;8817;48.170;8.592;2022-12-11T01:03:46;7.53;;;5.50;;
17398;SDS011;8817;48.170;8.592;2022-12-11T01:06:14;5.87;;;5.47;;
17398;SDS011;8817;48.170;8.592;2022-12-11T01:08:42;6.50;;;5.80;;
17398;SDS011;8817;48.170;8.592;2022-12-11T01:11:12;10.23;;;5.90;;
17398;SDS011;8817;48.170;8.592;2022-12-11T01:13:39;5.50;;;5.07;;
17398;SDS011;8817;48.170;8.592;2022-12-11T01:16:08;9.17;;;5.83;;
17398;SDS011;8817;48.170;8.592;2022-12-11T01:18:36;5.03;;;4.73;;
17398;SDS011;8817;48.170;8.592;2022-12-11T01:21:04;4.87;;;4.57;;
17398;SDS011;8817;48.170;8.592;2022-12-11T01:23:32;4.77;;;4.47;;
17398;SDS011;8817;48.170;8.592;2022-12-11T01:26:03;5.70;;;5.20;;
17398;SDS011;8817;48.170;8.592;2022-12-11T01:28:33;7.53;;;5.60;;
17398;SDS011;8817;48.170;8.592;2022-12-11T01:31:00;6.30;;;5.80;;
17398;SDS011;8817;48.170;8.592;2022-12-11T01:33:27;5.33;;;4.83;;
17398;SDS011;8817;48.170;8.592;2022-12-11T01:35:54;7.10;;;5.67;;
17398;SDS011;8817;48.170;8.592;2022-12-11T01:38:21;6.33;;;5.70;;
17398;SDS011;8817;48.170;8.592;2022-12-11T01:40:48;7.27;;;6.03;;
17398;SDS011;8817;48.170;8.592;2022-12-11T01:43:15;5.97;;;5.37;;
17398;SDS011;8817;48.170;8.592;2022-12-11T01:45:44;4.60;;;4.30;;
17398;SDS011;8817;48.170;8.592;2022-12-11T01:48:13;5.57;;;5.03;;
17398;SDS011;8817;48.170;8.592;2022-12-11T01:50:46;6.37;;;5.17;;
17398;SDS011;8817;48.170;8.592;2022-12-11T01:53:17;6.00;;;5.50;;
17398;SDS011;8817;48.170;8.592;2022-12-11T01:55:47;9.13;;;5.73;;
17398;SDS011;8817;48.170;8.592;2022-12-11T01:58:15;5.63;;;4.53;;
17398;SDS011;8817;48.170;8.592;2022-12-11T02:00:46;7.30;;;5.47;;
17398;SDS011;8817;48.170;8.592;2022-12-11T02:03:13;6.33;;;5.03;;
17398;SDS011;8817;48.170;8.592;2022-12-11T02:05:41;5.13;;;4.83;;
17398;SDS011;8817;48.170;8.592;2022-12-11T02:08:08;5.50;;;5.07;;
17398;SDS011;8817;48.170;8.592;2022-12-11T02:10:47;4.03;;;3.90;;
17398;SDS011;8817;48.170;8.592;2022-12-11T02:13:20;5.40;;;5.00;;
17398;SDS011;8817;48.170;8.592;2022-12-11T02:15:57;4.80;;;4.50;;
17398;SDS011;8817;48.170;8.592;2022-12-11T02:18:32;6.00;;;4.93;;
17398;SDS011;8817;48.170;8.592;2022-12-11T02:21:05;3.87;;;3.77;;
17398;SDS011;8817;48.170;8.592;2022-12-11T02:23:46;4.43;;;4.10;;
17398;SDS011;8817;48.170;8.592;2022-12-11T02:26:41;3.90;;;3.60;;
17398;SDS011;8817;48.170;8.592;2022-12-11T02:29:29;5.00;;;4.60;;
17398;SDS011;8817;48.170;8.592;2022-12-11T02:32:01;4.73;;;4.43;;
17398;SDS011;8817;48.170;8.592;2022-12-11T02:34:36;6.73;;;5.17;;
17398;SDS011;8817;48.170;8.592;2022-12-11T02:37:08;4.97;;;4.67;;
17398;SDS011;8817;48.170;8.592;2022-12-11T02:39:40;5.70;;;5.20;;
17398;SDS011;8817;48.170;8.592;2022-12-11T02:42:08;4.03;;;3.83;;
17398;SDS011;8817;48.170;8.592;2022-12-11T02:44:39;4.80;;;4.40;;
17398;SDS011;8817;48.170;8.592;2022-12-11T02:47:07;5.03;;;4.77;;
17398;SDS011;8817;48.170;8.592;2022-12-11T02:49:38;5.80;;;4.73;;
17398;SDS011;8817;48.170;8.592;2022-12-11T02:52:08;4.77;;;4.47;;
17398;SDS011;8817;48.170;8.592;2022-12-11T02:54:38;5.27;;;4.87;;
17398;SDS011;8817;48.170;8.592;2022-12-11T02:57:07;4.20;;;4.00;;
17398;SDS011;8817;48.170;8.592;2022-12-11T02:59:38;4.23;;;4.03;;
17398;SDS011;8817;48.170;8.592;2022-12-11T03:02:07;4.37;;;4.07;;
17398;SDS011;8817;48.170;8.592;2022-12-11T03:04:36;4.83;;;4.63;;
17398;SDS011;8817;48.170;8.592;2022-12-11T03:07:04;5.40;;;4.90;;
17398;SDS011;8817;48.170;8.592;2022-12-11T03:09:37;6.00;;;5.40;;
17398;SDS011;8817;48.170;8.592;2022-12-11T03:12:04;8.10;;;5.30;;
17398;SDS011;8817;48.170;8.592;2022-12-11T03:14:32;6.00;;;5.40;;
17398;SDS011;8817;48.170;8.592;2022-12-11T03:17:02;5.00;;;4.67;;
17398;SDS011;8817;48.170;8.592;2022-12-11T03:19:35;10.03;;;5.67;;
17398;SDS011;8817;48.170;8.592;2022-12-11T03:22:07;5.30;;;4.87;;
17398;SDS011;8817;48.170;8.592;2022-12-11T03:24:37;4.33;;;3.93;;
17398;SDS011;8817;48.170;8.592;2022-12-11T03:27:07;5.47;;;4.77;;
17398;SDS011;8817;48.170;8.592;2022-12-11T03:29:43;5.77;;;5.37;;
17398;SDS011;8817;48.170;8.592;2022-12-11T03:32:18;6.07;;;5.47;;
17398;SDS011;8817;48.170;8.592;2022-12-11T03:34:49;4.40;;;4.10;;
17398;SDS011;8817;48.170;8.592;2022-12-11T03:37:20;6.93;;;5.30;;
17398;SDS011;8817;48.170;8.592;2022-12-11T03:39:50;5.77;;;5.23;;
17398;SDS011;8817;48.170;8.592;2022-12-11T03:42:20;4.07;;;3.97;;
17398;SDS011;8817;48.170;8.592;2022-12-11T03:44:49;5.57;;;5.07;;
17398;SDS011;8817;48.170;8.592;2022-12-11T03:47:21;5.67;;;5.23;;
17398;SDS011;8817;48.170;8.592;2022-12-11T03:49:50;7.50;;;5.17;;
17398;SDS011;8817;48.170;8.592;2022-12-11T03:52:18;5.17;;;4.77;;
17398;SDS011;8817;48.170;8.592;2022-12-11T03:54:47;5.13;;;4.67;;
17398;SDS011;8817;48.170;8.592;2022-12-11T03:57:18;4.20;;;4.00;;
17398;SDS011;8817;48.170;8.592;2022-12-11T03:59:48;4.37;;;4.10;;
17398;SDS011;8817;48.170;8.592;2022-12-11T04:02:15;4.67;;;4.47;;
17398;SDS011;8817;48.170;8.592;2022-12-11T04:04:43;5.40;;;4.73;;
17398;SDS011;8817;48.170;8.592;2022-12-11T04:07:10;3.97;;;3.80;;
17398;SDS011;8817;48.170;8.592;2022-12-11T04:09:37;5.50;;;4.77;;
17398;SDS011;8817;48.170;8.592;2022-12-11T04:12:04;4.87;;;4.57;;
17398;SDS011;8817;48.170;8.592;2022-12-11T04:14:31;4.10;;;3.90;;
17398;SDS011;8817;48.170;8.592;2022-12-11T04:17:15;4.03;;;3.93;;
17398;SDS011;8817;48.170;8.592;2022-12-11T04:20:04;7.20;;;4.40;;
17398;SDS011;8817;48.170;8.592;2022-12-11T04:22:49;4.07;;;3.83;;
17398;SDS011;8817;48.170;8.592;2022-12-11T04:25:34;4.00;;;3.90;;
17398;SDS011;8817;48.170;8.592;2022-12-11T04:28:01;4.30;;;4.10;;
17398;SDS011;8817;48.170;8.592;2022-12-11T04:30:27;4.53;;;4.30;;
17398;SDS011;8817;48.170;8.592;2022-12-11T04:32:54;4.10;;;4.00;;
17398;SDS011;8817;48.170;8.592;2022-12-11T04:35:23;5.00;;;4.63;;
17398;SDS011;8817;48.170;8.592;2022-12-11T04:37:50;4.83;;;4.53;;
17398;SDS011;8817;48.170;8.592;2022-12-11T04:40:18;4.27;;;4.07;;
17398;SDS011;8817;48.170;8.592;2022-12-11T04:42:45;5.37;;;4.90;;
17398;SDS011;8817;48.170;8.592;2022-12-11T04:45:12;6.43;;;5.30;;
17398;SDS011;8817;48.170;8.592;2022-12-11T04:47:40;4.40;;;4.10;;
17398;SDS011;8817;48.170;8.592;2022-12-11T04:50:08;4.90;;;4.70;;
17398;SDS011;8817;48.170;8.592;2022-12-11T04:52:38;9.67;;;5.07;;
17398;SDS011;8817;48.170;8.592;2022-12-11T04:55:06;5.93;;;4.70;;
17398;SDS011;8817;48.170;8.592;2022-12-11T04:57:33;4.00;;;3.83;;
17398;SDS011;8817;48.170;8.592;2022-12-11T05:00:00;4.60;;;4.23;;
17398;SDS011;8817;48.170;8.592;2022-12-11T05:02:28;4.40;;;4.30;;
17398;SDS011;8817;48.170;8.592;2022-12-11T05:04:55;9.40;;;4.57;;
17398;SDS011;8817;48.170;8.592;2022-12-11T05:07:22;4.80;;;4.47;;
17398;SDS011;8817;48.170;8.592;2022-12-11T05:09:50;5.00;;;4.63;;
17398;SDS011;8817;48.170;8.592;2022-12-11T05:12:17;4.63;;;4.37;;
17398;SDS011;8817;48.170;8.592;2022-12-11T05:14:44;4.33;;;4.13;;
17398;SDS011;8817;48.170;8.592;2022-12-11T05:17:11;6.00;;;4.30;;
17398;SDS011;8817;48.170;8.592;2022-12-11T05:19:38;4.40;;;4.10;;
17398;SDS011;8817;48.170;8.592;2022-12-11T05:22:05;4.53;;;4.27;;
17398;SDS011;8817;48.170;8.592;2022-12-11T05:24:32;4.43;;;4.03;;
17398;SDS011;8817;48.170;8.592;2022-12-11T05:27:00;4.17;;;3.97;;
17398;SDS011;8817;48.170;8.592;2022-12-11T05:29:27;4.70;;;4.40;;
17398;SDS011;8817;48.170;8.592;2022-12-11T05:31:54;4.93;;;4.27;;
17398;SDS011;8817;48.170;8.592;2022-12-11T05:34:21;4.60;;;4.30;;
17398;SDS011;8817;48.170;8.592;2022-12-11T05:36:47;4.97;;;4.63;;
17398;SDS011;8817;48.170;8.592;2022-12-11T05:39:14;4.90;;;4.60;;
17398;SDS011;8817;48.170;8.592;2022-12-11T05:41:41;5.40;;;4.57;;
17398;SDS011;8817;48.170;8.592;2022-12-11T05:44:10;4.47;;;4.27;;
17398;SDS011;8817;48.170;8.592;2022-12-11T05:46:38;4.20;;;4.00;;
17398;SDS011;8817;48.170;8.592;2022-12-11T05:49:05;4.53;;;4.23;;
17398;SDS011;8817;48.170;8.592;2022-12-11T05:51:32;4.30;;;4.07;;
17398;SDS011;8817;48.170;8.592;2022-12-11T05:54:00;4.40;;;4.23;;
17398;SDS011;8817;48.170;8.592;2022-12-11T05:56:28;4.33;;;4.10;;
17398;SDS011;8817;48.170;8.592;2022-12-11T05:58:56;3.77;;;3.47;;
17398;SDS011;8817;48.170;8.592;2022-12-11T06:01:26;4.30;;;4.10;;
17398;SDS011;8817;48.170;8.592;2022-12-11T06:03:55;4.73;;;4.37;;
17398;SDS011;8817;48.170;8.592;2022-12-11T06:06:23;4.40;;;4.20;;
17398;SDS011;8817;48.170;8.592;2022-12-11T06:08:51;4.50;;;4.27;;
17398;SDS011;8817;48.170;8.592;2022-12-11T06:11:19;5.03;;;4.70;;
17398;SDS011;8817;48.170;8.592;2022-12-11T06:13:48;3.50;;;3.43;;
17398;SDS011;8817;48.170;8.592;2022-12-11T06:16:15;3.90;;;3.70;;
17398;SDS011;8817;48.170;8.592;2022-12-11T06:18:43;4.43;;;3.87;;
17398;SDS011;8817;48.170;8.592;2022-12-11T06:21:11;4.50;;;4.20;;
17398;SDS011;8817;48.170;8.592;2022-12-11T06:23:40;6.13;;;5.03;;
17398;SDS011;8817;48.170;8.592;2022-12-11T06:26:08;5.30;;;4.90;;
17398;SDS011;8817;48.170;8.592;2022-12-11T06:28:35;4.00;;;3.90;;
17398;SDS011;8817;48.170;8.592;2022-12-11T06:31:02;4.70;;;4.40;;
17398;SDS011;8817;48.170;8.592;2022-12-11T06:33:30;3.60;;;3.50;;
17398;SDS011;8817;48.170;8.592;2022-12-11T06:36:01;4.90;;;4.57;;
17398;SDS011;8817;48.170;8.592;2022-12-11T06:38:28;4.20;;;3.80;;
17398;SDS011;8817;48.170;8.592;2022-12-11T06:40:55;3.40;;;3.37;;
17398;SDS011;8817;48.170;8.592;2022-12-11T06:43:22;5.07;;;4.57;;
17398;SDS011;8817;48.170;8.592;2022-12-11T06:45:49;5.97;;;4.80;;
17398;SDS011;8817;48.170;8.592;2022-12-11T06:48:17;4.13;;;3.83;;
17398;SDS011;8817;48.170;8.592;2022-12-11T06:50:44;4.63;;;4.37;;
17398;SDS011;8817;48.170;8.592;2022-12-11T06:53:13;3.60;;;3.50;;
17398;SDS011;8817;48.170;8.592;2022-12-11T06:55:41;3.80;;;3.70;;
17398;SDS011;8817;48.170;8.592;2022-12-11T06:58:08;4.97;;;4.67;;
17398;SDS011;8817;48.170;8.592;2022-12-11T07:00:35;6.20;;;5.73;;
17398;SDS011;8817;48.170;8.592;2022-12-11T07:03:03;11.30;;;7.60;;
17398;SDS011;8817;48.170;8.592;2022-12-11T07:05:30;9.77;;;7.80;;
17398;SDS011;8817;48.170;8.592;2022-12-11T07:07:57;9.53;;;7.60;;
17398;SDS011;8817;48.170;8.592;2022-12-11T07:10:26;6.13;;;5.53;;
17398;SDS011;8817;48.170;8.592;2022-12-11T07:12:53;10.03;;;7.53;;
17398;SDS011;8817;48.170;8.592;2022-12-11T07:15:20;5.63;;;5.27;;
17398;SDS011;8817;48.170;8.592;2022-12-11T07:17:47;6.57;;;4.53;;
17398;SDS011;8817;48.170;8.592;2022-12-11T07:20:14;6.80;;;4.43;;
17398;SDS011;8817;48.170;8.592;2022-12-11T07:22:41;5.73;;;5.23;;
17398;SDS011;8817;48.170;8.592;2022-12-11T07:25:08;6.00;;;5.60;;
17398;SDS011;8817;48.170;8.592;2022-12-11T07:27:36;12.57;;;6.03;;
17398;SDS011;8817;48.170;8.592;2022-12-11T07:30:04;6.10;;;5.67;;
17398;SDS011;8817;48.170;8.592;2022-12-11T07:32:31;6.07;;;5.10;;
17398;SDS011;8817;48.170;8.592;2022-12-11T07:34:58;4.37;;;4.13;;
17398;SDS011;8817;48.170;8.592;2022-12-11T07:37:25;4.57;;;4.37;;
17398;SDS011;8817;48.170;8.592;2022-12-11T07:39:52;4.57;;;4.13;;
17398;SDS011;8817;48.170;8.592;2022-12-11T07:42:19;4.87;;;4.17;;
17398;SDS011;8817;48.170;8.592;2022-12-11T07:44:48;3.93;;;3.83;;
17398;SDS011;8817;48.170;8.592;2022-12-11T07:47:15;5.30;;;4.77;;
17398;SDS011;8817;48.170;8.592;2022-12-11T07:49:42;5.83;;;5.23;;
17398;SDS011;8817;48.170;8.592;2022-12-11T07:52:08;5.67;;;5.23;;
17398;SDS011;8817;48.170;8.592;2022-12-11T07:54:35;5.30;;;5.00;;
17398;SDS011;8817;48.170;8.592;2022-12-11T07:57:02;6.10;;;5.63;;
17398;SDS011;8817;48.170;8.592;2022-12-11T07:59:30;5.10;;;4.70;;
17398;SDS011;8817;48.170;8.592;2022-12-11T08:01:59;6.80;;;6.13;;
17398;SDS011;8817;48.170;8.592;2022-12-11T08:04:25;5.33;;;4.63;;
17398;SDS011;8817;48.170;8.592;2022-12-11T08:06:52;3.90;;;3.80;;
17398;SDS011;8817;48.170;8.592;2022-12-11T08:09:19;4.97;;;4.57;;
17398;SDS011;8817;48.170;8.592;2022-12-11T08:11:47;4.80;;;4.17;;
17398;SDS011;8817;48.170;8.592;2022-12-11T08:14:15;4.97;;;4.67;;
17398;SDS011;8817;48.170;8.592;2022-12-11T08:16:42;4.47;;;4.17;;
17398;SDS011;8817;48.170;8.592;2022-12-11T08:19:11;4.30;;;4.10;;
17398;SDS011;8817;48.170;8.592;2022-12-11T08:21:38;5.33;;;4.83;;
17398;SDS011;8817;48.170;8.592;2022-12-11T08:24:06;4.27;;;4.17;;
17398;SDS011;8817;48.170;8.592;2022-12-11T08:26:34;4.97;;;4.60;;
17398;SDS011;8817;48.170;8.592;2022-12-11T08:29:01;4.63;;;4.30;;
17398;SDS011;8817;48.170;8.592;2022-12-11T08:31:28;4.57;;;4.17;;
17398;SDS011;8817;48.170;8.592;2022-12-11T08:33:55;4.57;;;4.27;;
17398;SDS011;8817;48.170;8.592;2022-12-11T08:36:24;5.20;;;4.80;;
17398;SDS011;8817;48.170;8.592;2022-12-11T08:38:52;5.77;;;5.47;;
17398;SDS011;8817;48.170;8.592;2022-12-11T08:41:20;5.70;;;5.27;;
17398;SDS011;8817;48.170;8.592;2022-12-11T08:43:49;4.93;;;4.63;;
17398;SDS011;8817;48.170;8.592;2022-12-11T08:46:19;5.30;;;4.90;;
17398;SDS011;8817;48.170;8.592;2022-12-11T08:48:48;5.90;;;5.40;;
17398;SDS011;8817;48.170;8.592;2022-12-11T08:51:17;5.50;;;5.20;;
17398;SDS011;8817;48.170;8.592;2022-12-11T08:53:46;5.50;;;5.00;;
17398;SDS011;8817;48.170;8.592;2022-12-11T08:56:14;5.77;;;4.97;;
17398;SDS011;8817;48.170;8.592;2022-12-11T08:58:44;5.83;;;4.83;;
17398;SDS011;8817;48.170;8.592;2022-12-11T09:01:13;5.33;;;4.93;;
17398;SDS011;8817;48.170;8.592;2022-12-11T09:03:42;5.20;;;4.80;;
17398;SDS011;8817;48.170;8.592;2022-12-11T09:06:09;4.97;;;4.57;;
17398;SDS011;8817;48.170;8.592;2022-12-11T09:08:38;7.80;;;4.90;;
17398;SDS011;8817;48.170;8.592;2022-12-11T09:11:07;7.30;;;4.80;;
17398;SDS011;8817;48.170;8.592;2022-12-11T09:13:35;5.50;;;5.00;;
17398;SDS011;8817;48.170;8.592;2022-12-11T09:16:02;8.10;;;5.80;;
17398;SDS011;8817;48.170;8.592;2022-12-11T09:18:30;6.73;;;5.90;;
17398;SDS011;8817;48.170;8.592;2022-12-11T09:20:58;8.33;;;5.53;;
17398;SDS011;8817;48.170;8.592;2022-12-11T09:23:25;5.33;;;4.93;;
17398;SDS011;8817;48.170;8.592;2022-12-11T09:25:52;8.33;;;5.30;;
17398;SDS011;8817;48.170;8.592;2022-12-11T09:28:21;8.73;;;5.93;;
17398;SDS011;8817;48.170;8.592;2022-12-11T09:30:49;6.53;;;5.80;;
17398;SDS011;8817;48.170;8.592;2022-12-11T09:33:16;8.57;;;6.27;;
17398;SDS011;8817;48.170;8.592;2022-12-11T09:35:43;5.27;;;4.87;;
17398;SDS011;8817;48.170;8.592;2022-12-11T09:38:10;5.53;;;5.07;;
17398;SDS011;8817;48.170;8.592;2022-12-11T09:40:40;6.27;;;5.07;;
17398;SDS011;8817;48.170;8.592;2022-12-11T09:43:11;5.87;;;5.40;;
17398;SDS011;8817;48.170;8.592;2022-12-11T09:45:46;4.57;;;4.37;;
17398;SDS011;8817;48.170;8.592;2022-12-11T09:48:14;5.67;;;5.20;;
17398;SDS011;8817;48.170;8.592;2022-12-11T09:50:44;5.70;;;5.03;;
17398;SDS011;8817;48.170;8.592;2022-12-11T09:53:15;5.53;;;4.93;;
17398;SDS011;8817;48.170;8.592;2022-12-11T09:55:48;4.63;;;4.33;;
17398;SDS011;8817;48.170;8.592;2022-12-11T09:58:22;9.33;;;5.07;;
17398;SDS011;8817;48.170;8.592;2022-12-11T10:00:54;7.37;;;5.50;;
17398;SDS011;8817;48.170;8.592;2022-12-11T10:03:36;5.63;;;5.00;;
17398;SDS011;8817;48.170;8.592;2022-12-11T10:06:17;6.17;;;5.63;;
17398;SDS011;8817;48.170;8.592;2022-12-11T10:08:51;10.07;;;5.60;;
17398;SDS011;8817;48.170;8.592;2022-12-11T10:11:33;20.23;;;5.27;;
17398;SDS011;8817;48.170;8.592;2022-12-11T10:14:09;5.67;;;5.17;;
17398;SDS011;8817;48.170;8.592;2022-12-11T10:16:44;5.20;;;4.80;;
17398;SDS011;8817;48.170;8.592;2022-12-11T10:19:16;5.63;;;5.07;;
17398;SDS011;8817;48.170;8.592;2022-12-11T10:21:46;7.00;;;6.00;;
17398;SDS011;8817;48.170;8.592;2022-12-11T10:24:16;5.83;;;5.20;;
17398;SDS011;8817;48.170;8.592;2022-12-11T10:26:50;7.30;;;5.00;;
17398;SDS011;8817;48.170;8.592;2022-12-11T10:29:21;7.13;;;5.10;;
17398;SDS011;8817;48.170;8.592;2022-12-11T10:31:51;5.23;;;4.83;;
17398;SDS011;8817;48.170;8.592;2022-12-11T10:34:25;4.43;;;4.13;;
17398;SDS011;8817;48.170;8.592;2022-12-11T10:36:59;4.37;;;4.07;;
17398;SDS011;8817;48.170;8.592;2022-12-11T10:39:27;4.73;;;4.37;;
17398;SDS011;8817;48.170;8.592;2022-12-11T10:41:55;5.93;;;5.00;;
17398;SDS011;8817;48.170;8.592;2022-12-11T10:44:22;4.57;;;4.37;;
17398;SDS011;8817;48.170;8.592;2022-12-11T10:47:01;4.33;;;4.03;;
17398;SDS011;8817;48.170;8.592;2022-12-11T10:49:31;9.83;;;5.30;;
17398;SDS011;8817;48.170;8.592;2022-12-11T10:51:59;7.90;;;4.77;;
17398;SDS011;8817;48.170;8.592;2022-12-11T10:54:31;5.87;;;5.07;;
17398;SDS011;8817;48.170;8.592;2022-12-11T10:57:02;4.90;;;4.50;;
17398;SDS011;8817;48.170;8.592;2022-12-11T10:59:32;5.27;;;4.70;;
17398;SDS011;8817;48.170;8.592;2022-12-11T11:02:05;15.60;;;4.80;;
17398;SDS011;8817;48.170;8.592;2022-12-11T11:04:43;5.30;;;4.80;;
17398;SDS011;8817;48.170;8.592;2022-12-11T11:07:11;4.97;;;4.27;;
17398;SDS011;8817;48.170;8.592;2022-12-11T11:09:40;4.43;;;4.23;;
17398;SDS011;8817;48.170;8.592;2022-12-11T11:12:18;4.43;;;4.13;;
17398;SDS011;8817;48.170;8.592;2022-12-11T11:14:57;3.93;;;3.73;;
17398;SDS011;8817;48.170;8.592;2022-12-11T11:17:26;5.03;;;4.63;;
17398;SDS011;8817;48.170;8.592;2022-12-11T11:19:53;6.43;;;4.77;;
17398;SDS011;8817;48.170;8.592;2022-12-11T11:22:22;5.50;;;4.70;;
17398;SDS011;8817;48.170;8.592;2022-12-11T11:24:51;5.20;;;4.53;;
17398;SDS011;8817;48.170;8.592;2022-12-11T11:27:23;4.90;;;4.60;;
17398;SDS011;8817;48.170;8.592;2022-12-11T11:29:55;6.40;;;4.50;;
17398;SDS011;8817;48.170;8.592;2022-12-11T11:32:28;5.67;;;5.10;;
17398;SDS011;8817;48.170;8.592;2022-12-11T11:35:05;6.20;;;4.83;;
17398;SDS011;8817;48.170;8.592;2022-12-11T11:37:43;5.77;;;5.20;;
17398;SDS011;8817;48.170;8.592;2022-12-11T11:40:12;4.53;;;4.23;;
17398;SDS011;8817;48.170;8.592;2022-12-11T11:42:44;4.07;;;3.73;;
17398;SDS011;8817;48.170;8.592;2022-12-11T11:45:18;5.10;;;4.70;;
17398;SDS011;8817;48.170;8.592;2022-12-11T11:47:51;5.07;;;4.67;;
17398;SDS011;8817;48.170;8.592;2022-12-11T11:50:26;5.77;;;4.93;;
17398;SDS011;8817;48.170;8.592;2022-12-11T11:53:01;8.67;;;5.53;;
17398;SDS011;8817;48.170;8.592;2022-12-11T11:55:36;5.87;;;4.23;;
17398;SDS011;8817;48.170;8.592;2022-12-11T11:58:08;6.43;;;4.57;;
17398;SDS011;8817;48.170;8.592;2022-12-11T12:00:40;7.97;;;4.83;;
17398;SDS011;8817;48.170;8.592;2022-12-11T12:03:10;6.63;;;5.47;;
17398;SDS011;8817;48.170;8.592;2022-12-11T12:05:42;7.10;;;5.87;;
17398;SDS011;8817;48.170;8.592;2022-12-11T12:08:16;5.53;;;4.77;;
17398;SDS011;8817;48.170;8.592;2022-12-11T12:10:58;5.47;;;5.00;;
17398;SDS011;8817;48.170;8.592;2022-12-11T12:13:31;5.90;;;4.23;;
17398;SDS011;8817;48.170;8.592;2022-12-11T12:16:07;5.50;;;4.63;;
17398;SDS011;8817;48.170;8.592;2022-12-11T12:18:44;5.57;;;5.03;;
17398;SDS011;8817;48.170;8.592;2022-12-11T12:21:18;6.80;;;4.93;;
17398;SDS011;8817;48.170;8.592;2022-12-11T12:23:56;5.70;;;4.80;;
17398;SDS011;8817;48.170;8.592;2022-12-11T12:26:35;9.77;;;5.27;;
17398;SDS011;8817;48.170;8.592;2022-12-11T12:29:07;7.90;;;4.53;;
17398;SDS011;8817;48.170;8.592;2022-12-11T12:31:46;7.33;;;4.93;;
17398;SDS011;8817;48.170;8.592;2022-12-11T12:34:38;4.63;;;4.23;;
17398;SDS011;8817;48.170;8.592;2022-12-11T12:37:19;5.33;;;4.57;;
17398;SDS011;8817;48.170;8.592;2022-12-11T12:39:54;5.47;;;4.70;;
17398;SDS011;8817;48.170;8.592;2022-12-11T12:42:30;5.27;;;4.37;;
17398;SDS011;8817;48.170;8.592;2022-12-11T12:45:05;4.90;;;4.40;;
17398;SDS011;8817;48.170;8.592;2022-12-11T12:47:43;5.30;;;4.53;;
17398;SDS011;8817;48.170;8.592;2022-12-11T12:50:14;6.27;;;5.10;;
17398;SDS011;8817;48.170;8.592;2022-12-11T12:52:43;4.70;;;4.30;;
17398;SDS011;8817;48.170;8.592;2022-12-11T12:55:15;4.37;;;4.10;;
17398;SDS011;8817;48.170;8.592;2022-12-11T12:57:48;4.40;;;4.10;;
17398;SDS011;8817;48.170;8.592;2022-12-11T13:00:30;5.03;;;4.50;;
17398;SDS011;8817;48.170;8.592;2022-12-11T13:02:59;4.93;;;4.53;;
17398;SDS011;8817;48.170;8.592;2022-12-11T13:05:39;5.40;;;4.20;;
17398;SDS011;8817;48.170;8.592;2022-12-11T13:08:08;4.30;;;4.00;;
17398;SDS011;8817;48.170;8.592;2022-12-11T13:10:37;5.13;;;4.60;;
17398;SDS011;8817;48.170;8.592;2022-12-11T13:16:04;4.00;;;3.70;;
17398;SDS011;8817;48.170;8.592;2022-12-11T13:18:34;8.30;;;4.47;;
17398;SDS011;8817;48.170;8.592;2022-12-11T13:21:21;6.23;;;4.83;;
17398;SDS011;8817;48.170;8.592;2022-12-11T13:23:52;4.27;;;3.87;;
17398;SDS011;8817;48.170;8.592;2022-12-11T13:26:26;5.20;;;4.70;;
17398;SDS011;8817;48.170;8.592;2022-12-11T13:28:54;8.97;;;4.90;;
17398;SDS011;8817;48.170;8.592;2022-12-11T13:31:27;7.93;;;5.00;;
17398;SDS011;8817;48.170;8.592;2022-12-11T13:34:02;5.03;;;4.30;;
17398;SDS011;8817;48.170;8.592;2022-12-11T13:36:35;5.67;;;4.77;;
17398;SDS011;8817;48.170;8.592;2022-12-11T13:39:05;4.63;;;4.23;;
17398;SDS011;8817;48.170;8.592;2022-12-11T13:41:43;5.03;;;4.50;;
17398;SDS011;8817;48.170;8.592;2022-12-11T13:44:14;5.73;;;4.47;;
17398;SDS011;8817;48.170;8.592;2022-12-11T13:46:45;5.27;;;4.57;;
17398;SDS011;8817;48.170;8.592;2022-12-11T13:49:17;8.77;;;4.97;;
17398;SDS011;8817;48.170;8.592;2022-12-11T13:51:56;6.97;;;5.00;;
17398;SDS011;8817;48.170;8.592;2022-12-11T13:54:24;5.97;;;4.50;;
17398;SDS011;8817;48.170;8.592;2022-12-11T13:56:53;7.80;;;4.67;;
17398;SDS011;8817;48.170;8.592;2022-12-11T13:59:23;6.87;;;5.30;;
17398;SDS011;8817;48.170;8.592;2022-12-11T14:01:53;6.20;;;5.13;;
17398;SDS011;8817;48.170;8.592;2022-12-11T14:04:22;7.57;;;5.50;;
17398;SDS011;8817;48.170;8.592;2022-12-11T14:06:53;5.93;;;5.17;;
17398;SDS011;8817;48.170;8.592;2022-12-11T14:09:24;5.43;;;4.60;;
17398;SDS011;8817;48.170;8.592;2022-12-11T14:11:52;7.47;;;5.63;;
17398;SDS011;8817;48.170;8.592;2022-12-11T14:14:23;7.57;;;5.50;;
17398;SDS011;8817;48.170;8.592;2022-12-11T14:16:58;5.80;;;5.27;;
17398;SDS011;8817;48.170;8.592;2022-12-11T14:19:26;5.00;;;4.70;;
17398;SDS011;8817;48.170;8.592;2022-12-11T14:21:55;5.33;;;4.83;;
17398;SDS011;8817;48.170;8.592;2022-12-11T14:24:23;5.33;;;4.20;;
17398;SDS011;8817;48.170;8.592;2022-12-11T14:26:51;8.80;;;4.67;;
17398;SDS011;8817;48.170;8.592;2022-12-11T14:29:23;4.63;;;4.23;;
17398;SDS011;8817;48.170;8.592;2022-12-11T14:31:51;15.40;;;5.17;;
17398;SDS011;8817;48.170;8.592;2022-12-11T14:34:19;6.80;;;4.93;;
17398;SDS011;8817;48.170;8.592;2022-12-11T14:36:50;4.63;;;4.33;;
17398;SDS011;8817;48.170;8.592;2022-12-11T14:39:21;5.53;;;5.03;;
17398;SDS011;8817;48.170;8.592;2022-12-11T14:41:52;4.37;;;4.07;;
17398;SDS011;8817;48.170;8.592;2022-12-11T14:44:26;8.07;;;4.83;;
17398;SDS011;8817;48.170;8.592;2022-12-11T14:46:56;6.83;;;4.73;;
17398;SDS011;8817;48.170;8.592;2022-12-11T14:49:28;4.67;;;4.37;;
17398;SDS011;8817;48.170;8.592;2022-12-11T14:52:12;4.43;;;4.23;;
17398;SDS011;8817;48.170;8.592;2022-12-11T14:54:45;4.23;;;3.97;;
17398;SDS011;8817;48.170;8.592;2022-12-11T14:57:17;4.27;;;3.93;;
17398;SDS011;8817;48.170;8.592;2022-12-11T14:59:46;4.27;;;4.00;;
17398;SDS011;8817;48.170;8.592;2022-12-11T15:02:26;5.73;;;4.33;;
17398;SDS011;8817;48.170;8.592;2022-12-11T15:05:14;4.33;;;3.97;;
17398;SDS011;8817;48.170;8.592;2022-12-11T15:07:43;4.40;;;4.10;;
17398;SDS011;8817;48.170;8.592;2022-12-11T15:10:22;4.40;;;4.07;;
17398;SDS011;8817;48.170;8.592;2022-12-11T15:12:51;4.30;;;4.00;;
17398;SDS011;8817;48.170;8.592;2022-12-11T15:15:19;4.17;;;3.90;;
17398;SDS011;8817;48.170;8.592;2022-12-11T15:17:47;4.57;;;4.17;;
17398;SDS011;8817;48.170;8.592;2022-12-11T15:20:20;4.67;;;4.07;;
17398;SDS011;8817;48.170;8.592;2022-12-11T15:22:49;6.47;;;4.10;;